Aeroporto :
LOGIN :

Iscrizione | Disclaimer

   EN    FR    IT 

 










Sommario :    VFR   VFR Marginale   IFR   IFR Intensivo   IFR Molto Intensivo
Visibilità : 
Base nubi : 
>= 8 km
>= 3000ft
5 / 8 km
1000 / 3000 ft
1500m / 5 km
500 / 1000 ft
800 / 1500m
200 / 500 ft
< 800m
< 200 ft
Simboli :   Temporali  Nebbia  Neve Forte  Precipitazioni Forti  Vento > 20 kt
SIGMETs :   Varie  Temporali  Ghiacco  Turbolenza  Onda orograficha  Ceneri Vulcaniche







- Altitudine del aeroporto : 26 ft


ETNT - Wittmundhaven AB

ULTIMO METAR :
  • 250830Z 34018G32KT 9000 FEW014 SCT018CB 06/02 Q1015 BLU+BLU TEMPO GRN

METARs OBSOLETI :
  • 250820Z 34018G30KT 6000 -SHRA FEW014 BKN018CB 05/03 Q1015 WHT BLU TEMPO GRN
  • 250807Z 34016G27KT 6000 -SHRA FEW012 BKN018CB 06/03 Q1015 WHT BLU TEMPO GRN
  • 250720Z 33013KT 8000 SCT011 BKN016CB 05/03 Q1014 WHT BLU TEMPO GRN
  • 250620Z 29006KT 6000 -SHRA SCT013 BKN017CB 04/03 Q1013 WHT

TAF TAF ETNT
Valido dal 25 a 09 ore il 25 a 18 ore UTC


250800Z 2509/2518 31015G30KT 9999 NSW BKN030
TEMPO 2509/2514 34020G35KT 4000 SHRAGS BKN010 BKN020CB
PROB30 2509/2512 35025G38KT 3000 TSGS BKN005 BKN010CB BY ETGL
Nessun NOTAM noto per questo aeroporto.



MetMap, La meteo Aeronautica in un colpo d'occhio ! - Copyright ORBIFLY Dicembre 2007 - Disclaimer

ORBIFLY MET'MAP TEAM :

Programmazione e sviluppo : Alexandra Zaïnal
Concezione e sviluppo : Baudouin d'Aumeries
Co-Programmazione e sviluppo : Marc-Olivier Méhu
Supporto tecnico e logistico : Manuel Goepfert
Aiuto per la traduzione : Arnaldo La Scala

Contatto : metmap@orbifly.com




FONTI E CREDITI :

   NOAA